Time;durP1;ratioP1;P1;durP2;ratioP2;P2;SDS_P1;SDS_P2;PMS_P1;PMS_P2;Temp;Humidity;BMP_temperature;BMP_pressure;BME280_temperature;BME280_humidity;BME280_pressure;Samples;Min_cycle;Max_cycle;Signal;HPM_P1;HPM_P2
2023/04/29 00:02:04;;;;;;;0.20;0.20;;;7.50;99.90;;;;;;5055614;28;20057;-73
2023/04/29 00:04:32;;;;;;;0.20;0.20;;;7.50;99.90;;;;;;5055497;28;20111;-73
2023/04/29 00:07:00;;;;;;;0.17;0.17;;;7.60;99.90;;;;;;5054988;28;20020;-73
2023/04/29 00:09:25;;;;;;;0.20;0.20;;;7.50;99.90;;;;;;5055095;28;20040;-73
2023/04/29 00:11:51;;;;;;;0.20;0.20;;;7.50;99.90;;;;;;5054244;28;20029;-73
2023/04/29 00:14:16;;;;;;;0.20;0.20;;;7.50;99.90;;;;;;5055065;28;20025;-73
2023/04/29 00:16:47;;;;;;;0.20;0.20;;;7.50;99.90;;;;;;5055378;28;20024;-73
2023/04/29 00:19:13;;;;;;;0.20;0.20;;;7.50;99.90;;;;;;5059067;23;20052;-72
2023/04/29 00:21:38;;;;;;;0.20;0.20;;;7.50;99.90;;;;;;5055326;28;20025;-73
2023/04/29 00:24:04;;;;;;;0.10;0.10;;;7.50;99.90;;;;;;5055189;28;20045;-73
2023/04/29 00:26:31;;;;;;;0.20;0.20;;;7.50;99.90;;;;;;5055524;28;20025;-73
2023/04/29 00:28:59;;;;;;;0.10;0.10;;;7.50;99.90;;;;;;5054368;28;20027;-73
2023/04/29 00:31:25;;;;;;;0.20;0.20;;;7.50;99.90;;;;;;5055034;28;20450;-72
2023/04/29 00:33:51;;;;;;;0.20;0.20;;;7.50;99.90;;;;;;5055105;28;20025;-72
2023/04/29 00:36:16;;;;;;;0.13;0.13;;;7.50;99.90;;;;;;5055383;28;20075;-73
2023/04/29 00:38:42;;;;;;;0.20;0.20;;;7.50;99.90;;;;;;5054473;28;20033;-73
2023/04/29 00:41:07;;;;;;;0.20;0.20;;;7.50;99.90;;;;;;5053451;28;20021;-72
2023/04/29 00:43:33;;;;;;;0.20;0.20;;;7.40;99.90;;;;;;5055021;28;20025;-73
2023/04/29 00:45:59;;;;;;;0.20;0.20;;;7.40;99.90;;;;;;5054271;28;20031;-73
2023/04/29 00:48:25;;;;;;;0.17;0.17;;;7.40;99.90;;;;;;5051825;28;20037;-73
2023/04/29 00:50:50;;;;;;;0.15;0.15;;;7.50;99.90;;;;;;5035307;28;20036;-73
2023/04/29 00:53:16;;;;;;;0.20;0.20;;;7.50;99.90;;;;;;5033273;28;20017;-73
2023/04/29 00:55:43;;;;;;;0.20;0.20;;;7.50;99.90;;;;;;5070272;28;20116;-73
2023/04/29 00:58:09;;;;;;;0.20;0.20;;;7.50;99.90;;;;;;5053760;28;20051;-73
2023/04/29 01:00:35;;;;;;;0.20;0.20;;;7.50;99.90;;;;;;5054975;28;20024;-73
2023/04/29 01:03:01;;;;;;;0.20;0.20;;;7.50;99.90;;;;;;5055014;28;20052;-73
2023/04/29 01:05:27;;;;;;;0.20;0.20;;;7.50;99.90;;;;;;5048331;28;20065;-73
2023/04/29 01:08:11;;;;;;;0.20;0.20;;;7.60;99.90;;;;;;5033731;28;20104;-73
2023/04/29 01:10:58;;;;;;;0.10;0.10;;;7.60;99.90;;;;;;5033814;28;20018;-73
2023/04/29 01:13:40;;;;;;;0.20;0.20;;;7.60;99.90;;;;;;5034526;28;20075;-73
2023/04/29 01:16:17;;;;;;;0.20;0.20;;;7.60;99.90;;;;;;5034879;28;20029;-73
2023/04/29 01:18:48;;;;;;;0.10;0.10;;;7.50;99.90;;;;;;5032924;28;20040;-73
2023/04/29 01:21:14;;;;;;;0.20;0.20;;;7.50;99.90;;;;;;5050059;28;20608;-73
2023/04/29 01:23:40;;;;;;;0.20;0.20;;;7.50;99.90;;;;;;5055114;28;20040;-73
2023/04/29 01:26:07;;;;;;;0.20;0.20;;;7.50;99.90;;;;;;5055875;28;20033;-73
2023/04/29 01:28:57;;;;;;;0.10;0.10;;;7.50;99.90;;;;;;5071702;23;20041;-72
2023/04/29 01:31:37;;;;;;;0.17;0.17;;;7.40;99.90;;;;;;5038417;28;20021;-73
2023/04/29 01:34:26;;;;;;;0.17;0.17;;;7.40;99.90;;;;;;5038957;28;20467;-73
2023/04/29 01:37:10;;;;;;;0.10;0.10;;;7.40;99.90;;;;;;5038314;28;20026;-72
2023/04/29 01:40:10;;;;;;;0.13;0.13;;;7.40;99.90;;;;;;5038054;28;20025;-73
2023/04/29 01:42:44;;;;;;;0.10;0.10;;;7.40;99.90;;;;;;5038117;28;20037;-72
2023/04/29 01:45:13;;;;;;;0.15;0.15;;;7.30;99.90;;;;;;5020498;28;20097;-73
2023/04/29 01:47:43;;;;;;;0.20;0.20;;;7.30;99.90;;;;;;5037702;28;20100;-73
2023/04/29 01:50:11;;;;;;;0.20;0.20;;;7.30;99.90;;;;;;5066684;23;20395;-72
2023/04/29 01:52:37;;;;;;;0.20;0.20;;;7.30;99.90;;;;;;5056492;28;20028;-72
2023/04/29 01:55:03;;;;;;;0.13;0.13;;;7.30;99.90;;;;;;5058478;28;20398;-73
2023/04/29 01:57:29;;;;;;;0.20;0.20;;;7.30;99.90;;;;;;5058288;28;20438;-72
2023/04/29 01:59:56;;;;;;;0.10;0.10;;;7.30;99.90;;;;;;5057985;28;20079;-72
2023/04/29 02:02:22;;;;;;;0.10;0.10;;;7.20;99.90;;;;;;5057413;28;20166;-72
2023/04/29 02:04:49;;;;;;;0.13;0.13;;;7.20;99.90;;;;;;5057294;28;20057;-72
2023/04/29 02:07:15;;;;;;;0.20;0.20;;;7.20;99.90;;;;;;5058600;28;20013;-73
2023/04/29 02:09:41;;;;;;;0.20;0.20;;;7.20;99.90;;;;;;5058216;28;20085;-72
2023/04/29 02:12:06;;;;;;;0.15;0.15;;;7.30;99.90;;;;;;5057847;28;20447;-72
2023/04/29 02:14:33;;;;;;;0.20;0.20;;;7.30;99.90;;;;;;5057103;28;20478;-72
2023/04/29 02:16:58;;;;;;;0.17;0.17;;;7.30;99.90;;;;;;5058309;28;20036;-73
2023/04/29 02:19:24;;;;;;;0.20;0.20;;;7.30;99.90;;;;;;5057912;28;20017;-72
2023/04/29 02:21:53;;;;;;;0.20;0.20;;;7.20;99.90;;;;;;5057923;28;20029;-73
2023/04/29 02:24:18;;;;;;;0.10;0.10;;;7.20;99.90;;;;;;5056861;28;20029;-72
2023/04/29 02:26:44;;;;;;;0.20;0.20;;;7.20;99.90;;;;;;5057656;28;20034;-73
2023/04/29 02:29:09;;;;;;;0.10;0.10;;;7.20;99.90;;;;;;5058472;28;20028;-73
2023/04/29 02:31:35;;;;;;;0.20;0.20;;;7.20;99.90;;;;;;5057645;28;20021;-72
2023/04/29 02:34:00;;;;;;;0.20;0.20;;;7.10;99.90;;;;;;5057242;28;20029;-72
2023/04/29 02:36:26;;;;;;;0.10;0.10;;;7.10;99.90;;;;;;5056647;28;20545;-72
2023/04/29 02:38:54;;;;;;;0.20;0.20;;;7.10;99.90;;;;;;5056408;28;20445;-72
2023/04/29 02:41:20;;;;;;;0.10;0.10;;;7.00;99.90;;;;;;5057636;28;20112;-72
2023/04/29 02:43:47;;;;;;;0.10;0.10;;;7.00;99.90;;;;;;5057486;28;20051;-72
2023/04/29 02:46:13;;;;;;;0.20;0.20;;;6.90;99.90;;;;;;5057144;28;20021;-72
2023/04/29 02:48:39;;;;;;;0.20;0.20;;;6.80;99.90;;;;;;5056351;28;20091;-72
2023/04/29 02:51:05;;;;;;;0.20;0.20;;;6.80;99.90;;;;;;5057610;28;20049;-73
2023/04/29 02:53:31;;;;;;;0.10;0.10;;;6.80;99.90;;;;;;5057590;28;20049;-72
2023/04/29 02:55:57;;;;;;;0.20;0.20;;;6.70;99.90;;;;;;5056823;28;20032;-72
2023/04/29 02:58:22;;;;;;;0.25;0.25;;;6.60;99.90;;;;;;5056393;28;20029;-72
2023/04/29 03:00:48;;;;;;;0.20;0.20;;;6.70;99.90;;;;;;5057034;28;20029;-73
2023/04/29 03:03:14;;;;;;;0.30;0.30;;;6.60;99.90;;;;;;5057085;28;20029;-73
2023/04/29 03:05:40;;;;;;;0.20;0.20;;;6.60;99.90;;;;;;5054470;28;20021;-72
2023/04/29 03:08:06;;;;;;;0.25;0.25;;;6.60;99.90;;;;;;5036091;28;20022;-72
2023/04/29 03:10:31;;;;;;;0.10;0.10;;;6.50;99.90;;;;;;5050392;28;20100;-72
2023/04/29 03:12:57;;;;;;;0.15;0.15;;;6.50;99.90;;;;;;5056771;28;20450;-72
2023/04/29 03:15:22;;;;;;;0.20;0.20;;;6.40;99.90;;;;;;5057235;28;20479;-73
2023/04/29 03:17:48;;;;;;;0.20;0.20;;;6.30;99.90;;;;;;5056602;28;20025;-72
2023/04/29 03:20:14;;;;;;;0.20;0.20;;;6.30;99.90;;;;;;5048653;28;20021;-72
2023/04/29 03:22:39;;;;;;;0.20;0.20;;;6.20;99.90;;;;;;5036870;28;20060;-72
2023/04/29 03:25:05;;;;;;;0.20;0.20;;;6.10;99.90;;;;;;5036614;28;20037;-72
2023/04/29 03:27:31;;;;;;;0.20;0.20;;;6.00;99.90;;;;;;5036639;28;20018;-72
2023/04/29 03:29:57;;;;;;;0.15;0.15;;;5.90;99.90;;;;;;5035726;28;20111;-73
2023/04/29 03:32:23;;;;;;;0.20;0.20;;;5.90;99.90;;;;;;5035191;28;20017;-72
2023/04/29 03:34:48;;;;;;;0.20;0.20;;;5.80;99.90;;;;;;5035234;28;20033;-72
2023/04/29 03:37:15;;;;;;;0.20;0.20;;;5.80;99.90;;;;;;5036437;28;20036;-72
2023/04/29 03:39:41;;;;;;;0.20;0.20;;;5.90;99.90;;;;;;5036354;28;20394;-72
2023/04/29 03:42:06;;;;;;;0.20;0.20;;;6.00;99.90;;;;;;5035372;28;20113;-72
2023/04/29 03:44:32;;;;;;;0.20;0.20;;;6.10;99.90;;;;;;5036398;28;20148;-73
2023/04/29 03:46:58;;;;;;;0.20;0.20;;;6.10;99.90;;;;;;5036703;28;20021;-72
2023/04/29 03:49:24;;;;;;;0.20;0.20;;;6.20;99.90;;;;;;5034407;28;20053;-73
2023/04/29 03:51:55;;;;;;;0.10;0.10;;;6.30;99.90;;;;;;5035711;28;20027;-72
2023/04/29 03:54:23;;;;;;;0.20;0.20;;;6.30;99.90;;;;;;5035381;28;20024;-72
2023/04/29 03:56:49;;;;;;;0.20;0.20;;;6.40;99.90;;;;;;5036280;28;20033;-73
2023/04/29 03:59:15;;;;;;;0.20;0.20;;;6.50;99.90;;;;;;5036039;28;20395;-72
2023/04/29 04:01:40;;;;;;;0.10;0.10;;;6.60;99.90;;;;;;5036337;28;20025;-72
2023/04/29 04:04:08;;;;;;;0.22;0.22;;;6.50;99.90;;;;;;5035661;28;20044;-72
2023/04/29 04:06:38;;;;;;;0.20;0.20;;;6.50;99.90;;;;;;5035498;28;20083;-72
2023/04/29 04:09:03;;;;;;;0.13;0.13;;;6.50;99.90;;;;;;5035781;28;20017;-72
2023/04/29 04:11:29;;;;;;;0.20;0.20;;;6.50;99.90;;;;;;5035985;28;20040;-72
2023/04/29 04:13:54;;;;;;;0.15;0.15;;;6.50;99.90;;;;;;5037643;28;20037;-72
2023/04/29 04:16:20;;;;;;;0.20;0.20;;;6.60;99.90;;;;;;5055626;28;20044;-72
2023/04/29 04:18:45;;;;;;;0.20;0.20;;;6.60;99.90;;;;;;5054756;28;20060;-72
2023/04/29 04:21:11;;;;;;;0.30;0.30;;;6.70;99.90;;;;;;5055955;28;20056;-72
2023/04/29 04:23:39;;;;;;;0.10;0.10;;;6.70;99.90;;;;;;5055710;28;20044;-73
2023/04/29 04:26:06;;;;;;;0.20;0.20;;;6.80;99.90;;;;;;5055613;28;20072;-73
2023/04/29 04:28:34;;;;;;;0.20;0.20;;;6.80;99.90;;;;;;5055047;28;20017;-72
2023/04/29 04:31:00;;;;;;;0.10;0.10;;;6.80;99.90;;;;;;5054859;28;20441;-72
2023/04/29 04:33:26;;;;;;;0.10;0.10;;;6.80;99.90;;;;;;5055859;28;20029;-72
2023/04/29 04:35:52;;;;;;;0.20;0.20;;;6.80;99.90;;;;;;5055320;28;20025;-72
2023/04/29 04:38:18;;;;;;;0.20;0.20;;;6.80;99.90;;;;;;5046476;28;20025;-72
2023/04/29 04:40:46;;;;;;;0.20;0.20;;;6.80;99.90;;;;;;5034069;28;20026;-72
2023/04/29 04:43:12;;;;;;;0.20;0.20;;;6.80;99.90;;;;;;5035102;28;20475;-72
2023/04/29 04:45:37;;;;;;;0.10;0.10;;;6.90;99.90;;;;;;5035921;28;20052;-72
2023/04/29 04:48:03;;;;;;;0.20;0.20;;;6.80;99.90;;;;;;5035604;28;20393;-72
2023/04/29 04:50:29;;;;;;;0.10;0.10;;;6.90;99.90;;;;;;5049237;28;20037;-72
2023/04/29 04:52:56;;;;;;;0.10;0.10;;;6.90;99.90;;;;;;5054894;28;20075;-72
2023/04/29 04:55:22;;;;;;;0.10;0.10;;;6.90;99.90;;;;;;5055511;28;20036;-72
2023/04/29 04:57:47;;;;;;;0.10;0.10;;;6.80;99.90;;;;;;5055567;28;20028;-71
2023/04/29 05:00:13;;;;;;;0.13;0.13;;;6.80;99.90;;;;;;5056064;28;20036;-72
2023/04/29 05:02:39;;;;;;;0.10;0.10;;;6.80;99.90;;;;;;5037846;28;20146;-72
2023/04/29 05:05:04;;;;;;;0.20;0.20;;;6.70;99.90;;;;;;5040819;28;20033;-72
2023/04/29 05:07:31;;;;;;;0.10;0.10;;;6.70;99.90;;;;;;5059419;28;20135;-72
2023/04/29 05:09:56;;;;;;;0.20;0.20;;;6.80;99.90;;;;;;5057813;28;20112;-72
2023/04/29 05:12:24;;;;;;;0.20;0.20;;;6.80;99.90;;;;;;5058801;28;20052;-72
2023/04/29 05:14:52;;;;;;;0.17;0.17;;;6.80;99.90;;;;;;5058364;28;20013;-72
2023/04/29 05:17:17;;;;;;;0.20;0.20;;;6.90;99.90;;;;;;5059509;28;20541;-72
2023/04/29 05:19:43;;;;;;;0.10;0.10;;;6.90;99.90;;;;;;5059144;28;20104;-73
2023/04/29 05:22:08;;;;;;;0.20;0.20;;;7.10;99.90;;;;;;5059181;28;20035;-71
2023/04/29 05:24:34;;;;;;;0.20;0.20;;;7.10;99.90;;;;;;5058188;28;20028;-72
2023/04/29 05:26:59;;;;;;;0.10;0.10;;;7.20;99.90;;;;;;5058295;28;20036;-73
2023/04/29 05:29:26;;;;;;;0.20;0.20;;;7.30;99.90;;;;;;5058627;28;20021;-72
2023/04/29 05:31:51;;;;;;;0.20;0.20;;;7.40;99.90;;;;;;5058928;28;20075;-72
2023/04/29 05:34:17;;;;;;;0.10;0.10;;;7.40;99.90;;;;;;5058623;28;20029;-72
2023/04/29 05:36:43;;;;;;;0.20;0.20;;;7.40;99.90;;;;;;5057133;28;20025;-73
2023/04/29 05:39:09;;;;;;;0.10;0.10;;;7.40;99.90;;;;;;5058822;28;20107;-72
2023/04/29 05:41:35;;;;;;;0.20;0.20;;;7.40;99.90;;;;;;5058502;28;20060;-72
2023/04/29 05:44:00;;;;;;;0.13;0.13;;;7.40;99.90;;;;;;5058778;28;20032;-72
2023/04/29 05:46:29;;;;;;;0.10;0.10;;;7.40;99.90;;;;;;5056507;28;20031;-72
2023/04/29 05:48:54;;;;;;;0.20;0.20;;;7.40;99.90;;;;;;5057657;28;20402;-73
2023/04/29 05:51:20;;;;;;;0.20;0.20;;;7.40;99.90;;;;;;5058509;28;20040;-72
2023/04/29 05:53:45;;;;;;;0.20;0.20;;;7.40;99.90;;;;;;5058429;28;20107;-72
2023/04/29 05:56:11;;;;;;;0.20;0.20;;;7.30;99.90;;;;;;5058507;28;20021;-73
2023/04/29 05:58:36;;;;;;;0.20;0.20;;;7.30;99.90;;;;;;5057581;28;20163;-72
2023/04/29 06:01:02;;;;;;;0.20;0.20;;;7.30;99.90;;;;;;5047054;28;20029;-72
2023/04/29 06:03:28;;;;;;;0.20;0.20;;;7.30;99.90;;;;;;5038632;28;20025;-72
2023/04/29 06:05:54;;;;;;;0.17;0.17;;;7.40;99.90;;;;;;5038294;28;20021;-73
2023/04/29 06:08:20;;;;;;;0.13;0.13;;;7.50;99.90;;;;;;5037861;28;20033;-72
2023/04/29 06:10:46;;;;;;;0.10;0.10;;;7.60;99.90;;;;;;5037779;28;20076;-72
2023/04/29 06:13:11;;;;;;;0.20;0.20;;;7.60;99.90;;;;;;5037432;28;20105;-72
2023/04/29 06:15:37;;;;;;;0.20;0.20;;;7.70;99.90;;;;;;5037962;28;20033;-73
2023/04/29 06:18:03;;;;;;;0.20;0.20;;;7.70;99.90;;;;;;5037424;28;20022;-72
2023/04/29 06:20:28;;;;;;;0.10;0.10;;;7.80;99.90;;;;;;5037637;28;20026;-72
2023/04/29 06:22:54;;;;;;;0.20;0.20;;;7.90;99.90;;;;;;5037947;28;20083;-72
2023/04/29 06:25:19;;;;;;;0.20;0.20;;;7.90;99.90;;;;;;5037793;28;20036;-72
2023/04/29 06:27:45;;;;;;;0.17;0.17;;;7.90;99.90;;;;;;5041043;28;20017;-72
2023/04/29 06:30:11;;;;;;;0.20;0.20;;;7.90;99.90;;;;;;5057393;28;20028;-72
2023/04/29 06:32:38;;;;;;;0.20;0.20;;;7.90;99.90;;;;;;5056092;28;20493;-72
2023/04/29 06:35:04;;;;;;;0.20;0.20;;;7.90;99.90;;;;;;5057723;28;20532;-71
2023/04/29 06:37:29;;;;;;;0.20;0.20;;;7.90;99.90;;;;;;5057387;28;20036;-71
2023/04/29 06:39:55;;;;;;;0.20;0.20;;;7.80;99.90;;;;;;5057155;28;20151;-71
2023/04/29 06:42:22;;;;;;;0.15;0.15;;;7.80;99.90;;;;;;5057008;28;20060;-71
2023/04/29 06:44:48;;;;;;;0.20;0.20;;;7.70;99.90;;;;;;5057303;28;20032;-73
2023/04/29 06:47:14;;;;;;;0.20;0.20;;;7.70;99.90;;;;;;5057091;28;20021;-71
2023/04/29 06:49:39;;;;;;;0.20;0.20;;;7.70;99.90;;;;;;5056768;28;20029;-72
2023/04/29 06:52:05;;;;;;;0.15;0.15;;;7.70;99.90;;;;;;5057016;28;20027;-72
2023/04/29 06:54:31;;;;;;;0.20;0.20;;;7.60;99.90;;;;;;5055617;28;20383;-73
2023/04/29 06:56:57;;;;;;;0.20;0.20;;;7.70;99.90;;;;;;5057589;28;20096;-74
2023/04/29 06:59:22;;;;;;;0.20;0.20;;;7.90;99.90;;;;;;5057336;28;20126;-73
2023/04/29 07:01:48;;;;;;;0.10;0.10;;;8.20;99.90;;;;;;5056829;28;20025;-73
2023/04/29 07:04:13;;;;;;;0.20;0.20;;;8.60;99.90;;;;;;5056642;28;20470;-72
2023/04/29 07:06:39;;;;;;;0.10;0.10;;;8.90;99.90;;;;;;5043269;28;20483;-72
2023/04/29 07:09:05;;;;;;;0.10;0.10;;;9.20;99.90;;;;;;5037150;28;20018;-72
2023/04/29 07:11:33;;;;;;;0.20;0.20;;;9.50;99.90;;;;;;5036721;28;20108;-72
2023/04/29 07:13:58;;;;;;;0.20;0.20;;;9.90;99.90;;;;;;5036544;28;20088;-72
2023/04/29 07:16:25;;;;;;;0.20;0.20;;;10.30;99.90;;;;;;5054556;28;20478;-72
2023/04/29 07:18:50;;;;;;;0.25;0.25;;;10.60;99.90;;;;;;5045189;28;20064;-71
2023/04/29 07:21:16;;;;;;;0.20;0.20;;;10.80;99.90;;;;;;5041261;28;20391;-73
2023/04/29 07:23:42;;;;;;;0.20;0.20;;;11.10;99.90;;;;;;5056611;28;20032;-73
2023/04/29 07:26:12;;;;;;;0.20;0.20;;;11.20;99.90;;;;;;5056345;28;20060;-72
2023/04/29 07:28:37;;;;;;;0.17;0.17;;;11.30;99.90;;;;;;5076754;23;20114;-73
2023/04/29 07:31:03;;;;;;;0.20;0.20;;;11.40;99.90;;;;;;5056732;28;20488;-72
2023/04/29 07:33:29;;;;;;;0.10;0.10;;;11.50;99.90;;;;;;5056711;28;20044;-72
2023/04/29 07:35:55;;;;;;;0.20;0.20;;;11.50;99.90;;;;;;5056457;28;20100;-72
2023/04/29 07:38:20;;;;;;;0.20;0.20;;;11.60;99.90;;;;;;5055808;28;20064;-72
2023/04/29 07:40:46;;;;;;;0.10;0.10;;;11.70;99.90;;;;;;5056356;28;20025;-73
2023/04/29 07:43:11;;;;;;;0.20;0.20;;;11.70;99.90;;;;;;5056436;28;20021;-72
2023/04/29 07:45:38;;;;;;;0.20;0.20;;;11.80;99.90;;;;;;5055901;28;20460;-72
2023/04/29 07:48:05;;;;;;;0.20;0.20;;;12.00;99.90;;;;;;5055283;28;20382;-71
2023/04/29 07:50:33;;;;;;;0.20;0.20;;;12.20;99.90;;;;;;5176883;23;20053;-74
2023/04/29 07:53:00;;;;;;;0.20;0.20;;;12.30;99.90;;;;;;5035747;28;20033;-73
2023/04/29 07:55:28;;;;;;;0.13;0.13;;;12.40;99.90;;;;;;5018350;28;20108;-75
2023/04/29 07:57:54;;;;;;;0.15;0.15;;;12.50;99.90;;;;;;5035374;28;20021;-74
2023/04/29 08:00:22;;;;;;;0.20;0.20;;;12.60;99.90;;;;;;5034797;28;20052;-73
2023/04/29 08:02:52;;;;;;;0.10;0.10;;;12.80;99.90;;;;;;5035200;28;20510;-74
2023/04/29 08:05:19;;;;;;;0.20;0.20;;;13.00;99.90;;;;;;5035018;28;20032;-73
2023/04/29 08:07:44;;;;;;;0.20;0.20;;;13.10;99.90;;;;;;5017528;28;20101;-74
2023/04/29 08:10:10;;;;;;;0.20;0.20;;;13.10;99.90;;;;;;5013773;28;20104;-73
2023/04/29 08:12:39;;;;;;;0.20;0.20;;;13.10;99.90;;;;;;5014179;28;20400;-73
2023/04/29 08:15:08;;;;;;;0.20;0.20;;;13.10;99.90;;;;;;5014993;28;20024;-73
2023/04/29 08:17:34;;;;;;;0.20;0.20;;;13.20;99.90;;;;;;5014906;28;20037;-73
2023/04/29 08:19:59;;;;;;;0.20;0.20;;;13.30;99.90;;;;;;5080214;23;20037;-73
2023/04/29 08:22:25;;;;;;;0.10;0.10;;;13.30;99.90;;;;;;5054963;28;20017;-73
2023/04/29 08:24:50;;;;;;;0.30;0.30;;;13.40;99.90;;;;;;5054286;28;20514;-72
2023/04/29 08:27:16;;;;;;;0.10;0.10;;;13.40;99.90;;;;;;5053276;28;20036;-73
2023/04/29 08:29:42;;;;;;;0.20;0.20;;;13.40;99.90;;;;;;5054468;28;20088;-74
2023/04/29 08:32:07;;;;;;;0.20;0.20;;;13.50;99.90;;;;;;5035319;28;20093;-73
2023/04/29 08:34:35;;;;;;;0.10;0.10;;;13.50;99.90;;;;;;5034393;28;20454;-73
2023/04/29 08:37:01;;;;;;;0.20;0.20;;;13.60;99.90;;;;;;5034545;28;20017;-73
2023/04/29 08:39:29;;;;;;;0.20;0.20;;;13.70;99.90;;;;;;5048981;23;20072;-73
2023/04/29 08:41:56;;;;;;;0.20;0.20;;;13.70;99.90;;;;;;5035436;28;20410;-74
2023/04/29 08:44:22;;;;;;;0.20;0.20;;;13.70;99.90;;;;;;5035175;28;20026;-74
2023/04/29 08:46:49;;;;;;;0.20;0.20;;;13.50;99.90;;;;;;5034298;28;20483;-73
2023/04/29 08:49:15;;;;;;;0.10;0.10;;;13.60;99.90;;;;;;5020746;28;20032;-74
2023/04/29 08:51:40;;;;;;;0.10;0.10;;;13.60;99.90;;;;;;5037647;28;20021;-74
2023/04/29 08:54:06;;;;;;;0.20;0.20;;;13.80;99.90;;;;;;5052319;28;20061;-74
2023/04/29 08:56:32;;;;;;;0.20;0.20;;;13.70;99.90;;;;;;5017319;28;20402;-74
2023/04/29 08:59:00;;;;;;;0.20;0.20;;;13.50;99.90;;;;;;5033682;28;20026;-74
2023/04/29 09:01:29;;;;;;;0.20;0.20;;;13.50;99.90;;;;;;5033625;28;20034;-74
2023/04/29 09:04:19;;;;;;;0.20;0.20;;;13.40;99.90;;;;;;5032914;28;20396;-73
2023/04/29 09:06:46;;;;;;;0.10;0.10;;;13.60;99.90;;;;;;5046031;28;20047;-74
2023/04/29 09:09:13;;;;;;;0.17;0.17;;;13.60;99.90;;;;;;5052390;28;20036;-74
2023/04/29 09:11:39;;;;;;;0.10;0.10;;;13.60;99.90;;;;;;5052722;28;20017;-73
2023/04/29 09:14:05;;;;;;;0.20;0.20;;;13.60;99.90;;;;;;5034946;28;20502;-74
2023/04/29 09:16:30;;;;;;;0.10;0.10;;;13.80;99.90;;;;;;5052701;28;20386;-74
2023/04/29 09:18:56;;;;;;;0.10;0.10;;;13.90;99.90;;;;;;5051705;28;20040;-74
2023/04/29 09:21:26;;;;;;;0.10;0.10;;;13.60;99.90;;;;;;5052412;28;20028;-74
2023/04/29 09:23:55;;;;;;;0.20;0.20;;;13.70;99.90;;;;;;5052150;28;20441;-74
2023/04/29 09:26:21;;;;;;;0.20;0.20;;;13.70;99.90;;;;;;5034403;28;20371;-75
2023/04/29 09:29:04;;;;;;;0.20;0.20;;;13.60;99.90;;;;;;5051565;28;20566;-73
2023/04/29 09:31:30;;;;;;;0.20;0.20;;;13.70;99.90;;;;;;5052098;28;20106;-73
2023/04/29 09:33:57;;;;;;;0.20;0.20;;;13.50;99.90;;;;;;5052287;28;20061;-74
2023/04/29 09:36:45;;;;;;;0.10;0.10;;;13.60;99.90;;;;;;5052194;28;20549;-74
2023/04/29 09:39:16;;;;;;;0.15;0.15;;;13.70;99.90;;;;;;5034079;28;20502;-74
2023/04/29 09:41:51;;;;;;;0.13;0.13;;;13.80;99.90;;;;;;5051773;28;20029;-75
2023/04/29 09:44:17;;;;;;;0.20;0.20;;;14.00;99.90;;;;;;5051919;28;20059;-73
2023/04/29 09:46:43;;;;;;;0.20;0.20;;;14.20;99.90;;;;;;5051991;28;20027;-75
2023/04/29 09:49:28;;;;;;;0.20;0.20;;;14.40;99.90;;;;;;5055710;28;20025;-74
2023/04/29 09:51:57;;;;;;;0.10;0.10;;;14.30;99.90;;;;;;5054999;28;20017;-73
2023/04/29 09:54:24;;;;;;;0.20;0.20;;;14.30;99.90;;;;;;5055813;28;20025;-73
2023/04/29 09:56:51;;;;;;;0.10;0.10;;;14.20;99.90;;;;;;5055425;28;20399;-74
2023/04/29 09:59:18;;;;;;;0.10;0.10;;;14.10;99.90;;;;;;5055209;28;20108;-74
2023/04/29 10:01:48;;;;;;;0.10;0.10;;;14.10;99.90;;;;;;5055367;28;20017;-74
2023/04/29 10:04:17;;;;;;;0.10;0.10;;;13.90;99.90;;;;;;5055762;28;20025;-74
2023/04/29 10:06:45;;;;;;;0.20;0.20;;;14.10;99.90;;;;;;5037309;28;20036;-74
2023/04/29 10:09:16;;;;;;;0.20;0.20;;;14.10;99.90;;;;;;5055191;28;20071;-74
2023/04/29 10:11:43;;;;;;;0.10;0.10;;;14.10;99.90;;;;;;5055305;28;20017;-73
2023/04/29 10:14:26;;;;;;;0.20;0.20;;;14.10;99.90;;;;;;5054562;28;20104;-74
2023/04/29 10:17:15;;;;;;;0.20;0.20;;;14.30;99.90;;;;;;5037349;28;20040;-73
2023/04/29 10:19:53;;;;;;;0.10;0.10;;;14.40;99.90;;;;;;5055222;28;20033;-74
2023/04/29 10:22:28;;;;;;;0.13;0.13;;;14.20;99.90;;;;;;5054824;28;20048;-74
2023/04/29 10:24:55;;;;;;;0.20;0.20;;;14.30;99.90;;;;;;5054855;28;20037;-75
2023/04/29 10:27:21;;;;;;;0.20;0.20;;;14.30;99.90;;;;;;5037289;28;20382;-75
2023/04/29 10:29:49;;;;;;;0.10;0.10;;;14.20;99.90;;;;;;5054143;28;20071;-75
2023/04/29 10:32:16;;;;;;;0.20;0.20;;;14.10;99.90;;;;;;5037155;28;20027;-75
2023/04/29 10:34:42;;;;;;;0.20;0.20;;;14.10;99.90;;;;;;5036971;28;20021;-75
2023/04/29 10:37:11;;;;;;;0.20;0.20;;;14.10;99.90;;;;;;5054895;28;20021;-74
2023/04/29 10:40:06;;;;;;;0.13;0.13;;;14.00;99.90;;;;;;5054170;28;20028;-75
2023/04/29 10:42:41;;;;;;;0.20;0.20;;;14.00;99.90;;;;;;5033222;28;20041;-76
2023/04/29 10:45:30;;;;;;;0.20;0.20;;;14.30;99.90;;;;;;5054876;28;20112;-75
2023/04/29 10:48:05;;;;;;;0.15;0.15;;;14.60;99.90;;;;;;5054132;28;20496;-75
2023/04/29 10:50:31;;;;;;;0.20;0.20;;;14.70;99.90;;;;;;5054509;28;20024;-75
2023/04/29 10:52:57;;;;;;;0.20;0.20;;;14.80;99.90;;;;;;5054397;28;20023;-74
2023/04/29 10:55:23;;;;;;;0.20;0.20;;;14.80;99.90;;;;;;5054211;28;20036;-74
2023/04/29 10:57:52;;;;;;;0.20;0.20;;;15.00;99.90;;;;;;5053883;28;20032;-74
2023/04/29 11:00:25;;;;;;;0.20;0.20;;;14.80;99.90;;;;;;5054403;28;20033;-74
2023/04/29 11:02:52;;;;;;;0.20;0.20;;;14.70;99.90;;;;;;5054032;28;20024;-71
2023/04/29 11:05:37;;;;;;;0.10;0.10;;;14.50;99.90;;;;;;5053798;28;20097;-74
2023/04/29 11:08:22;;;;;;;0.20;0.20;;;14.40;99.90;;;;;;5036189;28;20024;-74
2023/04/29 11:10:52;;;;;;;0.20;0.20;;;14.80;99.90;;;;;;5054401;28;20017;-75
2023/04/29 11:13:25;;;;;;;0.10;0.10;;;14.60;99.90;;;;;;5036337;28;20486;-75
2023/04/29 11:15:52;;;;;;;0.10;0.10;;;14.30;99.90;;;;;;5054255;28;20032;-75
2023/04/29 11:18:17;;;;;;;0.20;0.20;;;13.90;99.90;;;;;;5053921;28;20078;-74
2023/04/29 11:21:05;;;;;;;0.20;0.20;;;14.00;99.90;;;;;;5053683;28;20029;-74
2023/04/29 11:23:38;;;;;;;0.20;0.20;;;13.70;99.90;;;;;;5036004;28;20029;-75
2023/04/29 11:26:04;;;;;;;0.15;0.15;;;13.40;99.90;;;;;;5035891;28;20028;-73
2023/04/29 11:28:31;;;;;;;0.20;0.20;;;13.30;99.90;;;;;;5053806;28;20021;-74
2023/04/29 11:31:01;;;;;;;0.20;0.20;;;13.80;99.90;;;;;;5053750;28;20025;-74
2023/04/29 11:33:27;;;;;;;0.20;0.20;;;14.20;99.90;;;;;;5053359;28;20386;-74
2023/04/29 11:35:53;;;;;;;0.17;0.17;;;14.30;99.90;;;;;;5035920;28;20025;-74
2023/04/29 11:38:26;;;;;;;0.10;0.10;;;14.20;99.90;;;;;;5053562;28;20522;-74
2023/04/29 11:40:54;;;;;;;0.15;0.15;;;14.10;99.90;;;;;;5053398;28;20040;-74
2023/04/29 11:43:21;;;;;;;0.10;0.10;;;14.20;99.90;;;;;;5053588;28;20032;-74
2023/04/29 11:45:47;;;;;;;0.20;0.20;;;13.80;99.90;;;;;;5052991;28;20107;-74
2023/04/29 11:48:20;;;;;;;0.15;0.15;;;13.50;99.90;;;;;;5035739;28;20098;-74
2023/04/29 11:50:48;;;;;;;0.10;0.10;;;13.10;99.90;;;;;;5035363;28;20020;-74
2023/04/29 11:53:14;;;;;;;0.10;0.10;;;12.90;99.90;;;;;;5053256;28;20021;-74
2023/04/29 11:55:44;;;;;;;0.10;0.10;;;12.70;99.90;;;;;;5035689;28;20032;-75
2023/04/29 11:58:10;;;;;;;0.20;0.20;;;12.80;99.90;;;;;;5052716;28;20064;-75
2023/04/29 12:00:35;;;;;;;0.10;0.10;;;13.20;99.90;;;;;;5053117;28;20036;-74
2023/04/29 12:03:06;;;;;;;0.20;0.20;;;13.20;99.90;;;;;;5053085;28;20040;-74
2023/04/29 12:05:31;;;;;;;0.20;0.20;;;12.90;99.90;;;;;;5053072;28;20039;-73
2023/04/29 12:07:57;;;;;;;0.10;0.10;;;12.40;99.90;;;;;;5052884;28;20099;-74
2023/04/29 12:10:22;;;;;;;0.10;0.10;;;12.10;99.90;;;;;;5052269;28;20566;-74
2023/04/29 12:12:48;;;;;;;0.20;0.20;;;12.30;99.90;;;;;;5035123;28;20029;-74
2023/04/29 12:15:14;;;;;;;0.15;0.15;;;13.30;99.90;;;;;;5035251;28;20486;-74
2023/04/29 12:17:41;;;;;;;0.20;0.20;;;14.70;99.90;;;;;;5053132;28;20072;-74
2023/04/29 12:20:09;;;;;;;0.20;0.20;;;14.40;99.90;;;;;;5051992;28;20100;-75
2023/04/29 12:22:34;;;;;;;0.20;0.20;;;13.30;99.90;;;;;;5052975;28;20111;-75
2023/04/29 12:25:02;;;;;;;0.20;0.20;;;12.40;99.90;;;;;;5052592;28;20083;-75
2023/04/29 12:27:28;;;;;;;0.13;0.13;;;12.40;99.90;;;;;;5053445;28;20060;-75
2023/04/29 12:29:56;;;;;;;0.10;0.10;;;12.40;99.90;;;;;;5052766;28;20049;-75
2023/04/29 12:32:23;;;;;;;0.20;0.20;;;12.40;99.90;;;;;;5041174;28;20037;-74
2023/04/29 12:34:51;;;;;;;0.20;0.20;;;13.00;99.90;;;;;;5032640;28;20068;-74
2023/04/29 12:37:17;;;;;;;0.20;0.20;;;13.80;99.90;;;;;;5044279;28;20027;-74
2023/04/29 12:39:42;;;;;;;0.10;0.10;;;13.50;99.90;;;;;;5052684;28;20489;-74
2023/04/29 12:42:15;;;;;;;0.10;0.10;;;13.70;99.90;;;;;;5052578;28;20017;-75
2023/04/29 12:44:40;;;;;;;0.20;0.20;;;13.30;99.90;;;;;;5053135;28;20071;-75
2023/04/29 12:47:12;;;;;;;0.10;0.10;;;13.60;99.90;;;;;;5052109;28;20033;-74
2023/04/29 12:49:41;;;;;;;0.13;0.13;;;14.10;99.90;;;;;;5052823;28;20017;-75
2023/04/29 12:52:09;;;;;;;0.28;0.28;;;13.30;99.90;;;;;;5052309;28;20025;-74
2023/04/29 12:54:40;;;;;;;0.10;0.10;;;12.60;99.90;;;;;;5034817;28;20057;-74
2023/04/29 12:57:06;;;;;;;0.20;0.20;;;12.30;99.90;;;;;;5051940;28;20032;-74